createdAt,value
2022-09-14T00:04:46.895Z,17.02
2022-09-14T00:09:49.728Z,16.96
2022-09-14T00:14:53.683Z,16.94
2022-09-14T00:19:56.288Z,16.87
2022-09-14T00:24:58.912Z,16.72
2022-09-14T00:30:02.934Z,16.60
2022-09-14T00:35:06.827Z,16.74
2022-09-14T00:40:12.330Z,16.67
2022-09-14T00:45:18.478Z,16.78
2022-09-14T00:50:21.415Z,16.84
2022-09-14T00:55:24.815Z,16.72
2022-09-14T01:00:30.875Z,16.79
2022-09-14T01:05:43.645Z,16.54
2022-09-14T01:10:57.906Z,16.58
2022-09-14T01:16:08.362Z,16.62
2022-09-14T01:21:12.216Z,16.66
2022-09-14T01:27:06.102Z,16.59
2022-09-14T01:32:13.903Z,16.55
2022-09-14T01:37:20.790Z,16.57
2022-09-14T01:42:27.138Z,16.37
2022-09-14T01:47:32.777Z,16.47
2022-09-14T01:52:41.436Z,16.49
2022-09-14T01:57:49.687Z,16.47
2022-09-14T02:02:55.791Z,16.47
2022-09-14T02:07:58.686Z,16.44
2022-09-14T02:13:02.693Z,16.38
2022-09-14T02:18:06.786Z,16.24
2022-09-14T02:23:09.418Z,16.44
2022-09-14T02:28:13.409Z,16.13
2022-09-14T02:33:19.845Z,16.38
2022-09-14T02:38:24.870Z,16.30
2022-09-14T02:43:38.522Z,16.31
2022-09-14T02:48:45.237Z,16.15
2022-09-14T02:53:52.759Z,16.27
2022-09-14T02:58:57.159Z,16.27
2022-09-14T03:03:59.795Z,16.25
2022-09-14T03:09:02.544Z,16.20
2022-09-14T03:14:06.930Z,16.26
2022-09-14T03:19:10.695Z,16.17
2022-09-14T03:24:13.345Z,16.09
2022-09-14T03:29:17.300Z,16.14
2022-09-14T03:34:19.909Z,16.12
2022-09-14T03:39:22.643Z,16.15
2022-09-14T03:44:26.623Z,16.06
2022-09-14T03:49:29.229Z,15.96
2022-09-14T03:54:32.521Z,16.03
2022-09-14T03:59:40.485Z,15.96
2022-09-14T04:04:48.166Z,15.84
2022-09-14T04:09:50.770Z,15.78
2022-09-14T04:14:54.772Z,15.87
2022-09-14T04:19:57.386Z,15.85
2022-09-14T04:24:59.999Z,15.47
2022-09-14T04:30:04.215Z,15.60
2022-09-14T04:35:07.037Z,15.39
2022-09-14T04:40:10.827Z,15.26
2022-09-14T04:45:14.970Z,15.58
2022-09-14T04:50:17.740Z,15.50
2022-09-14T04:55:20.323Z,15.15
2022-09-14T05:00:24.324Z,15.28
2022-09-14T05:05:26.933Z,15.37
2022-09-14T05:10:29.530Z,15.41
2022-09-14T05:15:33.512Z,15.26
2022-09-14T05:20:36.741Z,15.19
2022-09-14T05:25:40.552Z,15.24
2022-09-14T05:30:44.530Z,14.97
2022-09-14T05:35:47.679Z,15.13
2022-09-14T05:40:55.009Z,15.08
2022-09-14T05:46:02.336Z,15.10
2022-09-14T05:51:07.271Z,15.09
2022-09-14T05:56:12.303Z,15.01
2022-09-14T06:01:18.061Z,14.78
2022-09-14T06:06:21.374Z,14.62
2022-09-14T06:11:25.689Z,14.63
2022-09-14T06:16:30.215Z,14.78
2022-09-14T06:21:34.407Z,14.92
2022-09-14T06:26:37.092Z,14.79
2022-09-14T06:31:41.040Z,14.90
2022-09-14T06:36:44.757Z,14.96
2022-09-14T06:41:47.369Z,14.92
2022-09-14T06:46:56.501Z,15.02
2022-09-14T06:52:00.719Z,15.05
2022-09-14T06:57:03.557Z,14.93
2022-09-14T07:02:07.604Z,14.39
2022-09-14T07:07:10.226Z,14.63
2022-09-14T07:12:12.834Z,14.65
2022-09-14T07:17:16.861Z,14.22
2022-09-14T07:22:19.533Z,14.42
2022-09-14T07:27:22.124Z,14.38
2022-09-14T07:32:26.164Z,14.73
2022-09-14T07:37:30.345Z,14.63
2022-09-14T07:42:33.520Z,14.65
2022-09-14T07:47:37.464Z,14.93
2022-09-14T07:52:40.117Z,14.75
2022-09-14T07:57:55.745Z,14.65
2022-09-14T08:03:00.744Z,15.08
2022-09-14T08:08:03.789Z,15.19
2022-09-14T08:13:06.352Z,15.08
2022-09-14T08:18:11.348Z,14.75
2022-09-14T08:23:13.907Z,15.22
2022-09-14T08:28:16.500Z,14.85
2022-09-14T08:33:20.433Z,15.38
2022-09-14T08:38:23.225Z,14.90
2022-09-14T08:43:27.147Z,15.08
2022-09-14T08:48:36.588Z,14.85
2022-09-14T08:53:40.785Z,15.38
2022-09-14T08:59:05.652Z,15.57
2022-09-14T09:04:24.328Z,15.68
2022-09-14T09:09:32.401Z,15.59
2022-09-14T09:14:37.073Z,15.65
2022-09-14T09:19:45.537Z,15.65
2022-09-14T09:24:51.552Z,15.73
2022-09-14T09:35:47.060Z,15.78
2022-09-14T09:40:56.161Z,15.62
2022-09-14T09:46:00.933Z,15.41
2022-09-14T09:51:10.706Z,15.42
2022-09-14T09:56:18.977Z,15.67
2022-09-14T10:01:24.088Z,15.49
2022-09-14T10:06:28.330Z,15.58
2022-09-14T10:11:38.178Z,15.39
2022-09-14T10:16:42.071Z,15.28
2022-09-14T10:22:18.640Z,15.47
2022-09-14T10:27:46.522Z,15.40
2022-09-14T10:32:54.982Z,15.34
2022-09-14T10:38:08.445Z,15.21
2022-09-14T10:43:14.919Z,15.00
2022-09-14T10:48:37.719Z,15.26
2022-09-14T10:53:51.828Z,15.37
2022-09-14T10:59:13.471Z,15.35
2022-09-14T11:04:25.563Z,15.34
2022-09-14T11:09:33.674Z,15.29
2022-09-14T11:14:45.659Z,15.31
2022-09-14T11:19:55.060Z,15.37
2022-09-14T11:25:00.885Z,15.28
2022-09-14T11:30:07.383Z,15.29
2022-09-14T11:35:16.301Z,15.22
2022-09-14T11:40:24.107Z,15.20
2022-09-14T11:45:29.857Z,15.18
2022-09-14T11:50:33.501Z,15.35
2022-09-14T11:55:41.531Z,15.19
2022-09-14T12:01:01.470Z,15.27
2022-09-14T12:06:43.921Z,15.20
2022-09-14T12:11:49.271Z,15.30
2022-09-14T12:17:38.964Z,15.24
2022-09-14T12:22:39.411Z,15.25
2022-09-14T12:27:44.615Z,15.39
2022-09-14T12:32:47.364Z,15.38
2022-09-14T12:37:50.403Z,15.17
2022-09-14T12:42:54.708Z,15.37
2022-09-14T12:47:57.361Z,15.41
2022-09-14T12:53:18.164Z,15.16
2022-09-14T12:58:55.922Z,15.59
2022-09-14T13:03:58.914Z,15.60
2022-09-14T13:09:06.261Z,15.69
2022-09-14T13:14:17.615Z,15.55
2022-09-14T13:19:27.238Z,15.31
2022-09-14T13:30:01.265Z,15.54
2022-09-14T13:35:06.095Z,15.70
2022-09-14T13:40:09.732Z,15.39
2022-09-14T13:45:15.396Z,15.39
2022-09-14T13:50:18.870Z,15.34
2022-09-14T13:55:24.905Z,15.44
2022-09-14T14:00:28.885Z,15.37
2022-09-14T14:05:32.793Z,15.49
2022-09-14T14:10:38.605Z,15.21
2022-09-14T14:15:44.020Z,15.23
2022-09-14T14:20:46.621Z,15.25
2022-09-14T14:25:51.915Z,15.36
2022-09-14T14:30:58.799Z,15.35
2022-09-14T14:47:41.506Z,15.28
2022-09-14T14:52:44.160Z,15.11
2022-09-14T14:57:46.853Z,15.20
2022-09-14T15:02:58.445Z,15.23
2022-09-14T15:08:01.421Z,15.26
2022-09-14T15:13:06.323Z,15.10
2022-09-14T15:18:10.397Z,15.12
2022-09-14T15:23:14.073Z,15.12
2022-09-14T15:28:16.697Z,15.14
2022-09-14T15:33:20.887Z,15.15
2022-09-14T15:38:23.576Z,15.21
2022-09-14T15:43:26.299Z,15.18
2022-09-14T15:48:30.269Z,15.15
2022-09-14T15:53:32.835Z,15.20
2022-09-14T15:58:35.455Z,15.09
2022-09-14T16:03:40.136Z,15.06
2022-09-14T16:08:42.813Z,14.58
2022-09-14T16:13:45.371Z,14.83
2022-09-14T16:18:50.797Z,14.84
2022-09-14T16:23:55.815Z,14.39
2022-09-14T16:28:59.223Z,14.79
2022-09-14T16:34:06.233Z,14.98
2022-09-14T16:39:12.176Z,14.92
2022-09-14T16:44:16.512Z,15.00
2022-09-14T16:49:25.005Z,14.86
2022-09-14T16:54:31.667Z,14.88
2022-09-14T16:59:36.717Z,14.87
2022-09-14T17:04:40.636Z,14.85
2022-09-14T17:09:43.278Z,14.78
2022-09-14T17:14:48.006Z,14.78
2022-09-14T17:19:52.028Z,14.78
2022-09-14T17:24:54.653Z,14.69
2022-09-14T17:29:57.249Z,14.62
2022-09-14T17:35:01.792Z,14.70
2022-09-14T17:40:06.350Z,14.65
2022-09-14T17:45:10.499Z,14.62
2022-09-14T17:50:16.713Z,14.50
2022-09-14T17:55:19.341Z,14.51
2022-09-14T18:00:22.161Z,14.53
2022-09-14T18:05:26.889Z,14.40
2022-09-14T18:10:29.490Z,14.42
2022-09-14T18:15:34.950Z,14.40
2022-09-14T18:20:41.021Z,14.34
2022-09-14T18:25:43.907Z,14.12
2022-09-14T18:30:46.701Z,14.24
2022-09-14T18:35:53.817Z,14.18
2022-09-14T18:40:56.783Z,14.09
2022-09-14T18:45:59.516Z,14.15
2022-09-14T18:51:04.954Z,14.07
2022-09-14T18:56:09.776Z,13.95
2022-09-14T19:01:13.194Z,14.07
2022-09-14T19:06:18.900Z,14.13
2022-09-14T19:11:22.709Z,13.90
2022-09-14T19:16:25.557Z,13.87
2022-09-14T19:21:31.175Z,13.85
2022-09-14T19:26:36.960Z,13.93
2022-09-14T19:31:42.095Z,13.68
2022-09-14T19:36:46.398Z,13.62
2022-09-14T19:41:49.106Z,13.83
2022-09-14T19:46:52.278Z,13.86
2022-09-14T19:51:56.553Z,13.78
2022-09-14T19:56:59.219Z,13.82
2022-09-14T20:02:01.892Z,13.74
2022-09-14T20:07:07.449Z,13.69
2022-09-14T20:12:10.132Z,13.74
2022-09-14T20:17:12.704Z,13.71
2022-09-14T20:22:17.058Z,13.66
2022-09-14T20:27:19.666Z,13.59
2022-09-14T20:32:22.269Z,13.62
2022-09-14T20:37:27.276Z,13.58
2022-09-14T20:42:30.320Z,13.54
2022-09-14T20:47:33.031Z,13.44
2022-09-14T20:52:37.191Z,13.40
2022-09-14T20:57:39.817Z,13.38
2022-09-14T21:02:42.433Z,13.35
2022-09-14T21:07:55.979Z,13.24
2022-09-14T21:12:58.915Z,13.19
2022-09-14T21:18:01.706Z,13.17
2022-09-14T21:23:06.002Z,13.12
2022-09-14T21:28:08.565Z,13.16
2022-09-14T21:33:11.121Z,13.08
2022-09-14T21:38:15.094Z,12.96
2022-09-14T21:43:17.703Z,12.84
2022-09-14T21:48:20.445Z,12.91
2022-09-14T21:53:24.734Z,12.84
2022-09-14T21:58:27.298Z,12.87
2022-09-14T22:03:30.432Z,12.87
2022-09-14T22:08:35.534Z,12.88
2022-09-14T22:13:38.415Z,12.90
2022-09-14T22:18:43.373Z,12.93
2022-09-14T22:23:51.987Z,12.79
2022-09-14T22:28:56.064Z,12.87
2022-09-14T22:33:59.174Z,12.83
2022-09-14T22:39:03.695Z,12.82
2022-09-14T22:44:07.133Z,12.89
2022-09-14T22:49:09.987Z,12.88
2022-09-14T22:54:13.973Z,12.93
2022-09-14T22:59:16.616Z,12.94
2022-09-14T23:04:19.281Z,12.97
2022-09-14T23:09:23.316Z,12.93
2022-09-14T23:14:26.271Z,12.96
2022-09-14T23:19:29.944Z,12.95
2022-09-14T23:24:33.973Z,12.71
2022-09-14T23:29:36.643Z,12.77
2022-09-14T23:34:39.247Z,12.84
2022-09-14T23:39:43.227Z,12.74
2022-09-14T23:44:45.818Z,12.89
2022-09-14T23:49:48.431Z,12.91
2022-09-14T23:54:52.390Z,12.72
2022-09-14T23:59:55.002Z,12.82
